Time;durP1;ratioP1;P1;durP2;ratioP2;P2;SDS_P1;SDS_P2;PMS_P1;PMS_P2;Temp;Humidity;BMP_temperature;BMP_pressure;BME280_temperature;BME280_humidity;BME280_pressure;Samples;Min_cycle;Max_cycle;Signal;HPM_P1;HPM_P2
2021/08/17 00:00:05;;;;;;;17.73;10.48;;;;;;;11.58;100.00;96300.13;1023733;28;20102;-53
2021/08/17 00:00:36;;;;;;;17.08;9.88;;;;;;;11.55;100.00;96303.81;1027618;28;20055;-53
2021/08/17 00:01:06;;;;;;;16.85;9.65;;;;;;;11.58;100.00;96305.38;1023642;29;20409;-53
2021/08/17 00:01:37;;;;;;;18.42;9.27;;;;;;;11.58;100.00;96305.38;1024078;28;20083;-50
2021/08/17 00:02:08;;;;;;;19.05;9.82;;;;;;;11.57;100.00;96304.53;1023534;28;20023;-53
2021/08/17 00:02:39;;;;;;;17.45;9.75;;;;;;;11.60;100.00;96298.22;1020236;28;20034;-54
2021/08/17 00:03:10;;;;;;;18.23;10.20;;;;;;;11.55;100.00;96301.19;1024388;29;20113;-53
2021/08/17 00:03:40;;;;;;;16.58;9.60;;;;;;;11.52;100.00;96308.41;1024331;28;20071;-52
2021/08/17 00:04:11;;;;;;;15.32;9.95;;;;;;;11.53;100.00;96302.25;1032642;28;20221;-52
2021/08/17 00:04:41;;;;;;;14.63;9.48;;;;;;;11.52;100.00;96295.28;1036616;28;20100;-52
2021/08/17 00:05:12;;;;;;;18.67;10.07;;;;;;;11.53;100.00;96299.63;1036509;28;20014;-56
2021/08/17 00:05:43;;;;;;;17.50;10.70;;;;;;;11.52;100.00;96301.38;1028194;28;20023;-53
2021/08/17 00:06:13;;;;;;;17.25;9.80;;;;;;;11.53;100.00;96305.69;1024538;29;20496;-53
2021/08/17 00:06:44;;;;;;;17.88;10.60;;;;;;;11.55;100.00;96301.19;1016353;29;20107;-52
2021/08/17 00:07:16;;;;;;;16.42;9.75;;;;;;;11.58;100.00;96305.38;1016645;29;20035;-54
2021/08/17 00:07:47;;;;;;;19.83;10.15;;;;;;;11.60;100.00;96298.22;1020309;29;20537;-53
2021/08/17 00:08:17;;;;;;;20.13;11.35;;;;;;;11.57;100.00;96307.16;1020774;29;20071;-53
2021/08/17 00:08:48;;;;;;;18.48;10.75;;;;;;;11.54;100.00;96293.41;1024617;28;20123;-52
2021/08/17 00:09:18;;;;;;;17.48;9.90;;;;;;;11.53;100.00;96292.56;1024482;28;20023;-52
2021/08/17 00:09:50;;;;;;;17.52;9.65;;;;;;;11.52;100.00;96290.06;1028306;28;20081;-53
2021/08/17 00:10:20;;;;;;;20.52;11.38;;;;;;;11.52;100.00;96301.38;1028661;28;20373;-52
2021/08/17 00:10:51;;;;;;;20.55;10.50;;;;;;;11.52;100.00;96300.53;1028288;28;20070;-54
2021/08/17 00:11:21;;;;;;;17.73;10.23;;;;;;;11.52;100.00;96298.75;1032437;28;20091;-53
2021/08/17 00:11:52;;;;;;;21.88;11.35;;;;;;;11.55;100.00;96301.19;1032250;28;20032;-52
2021/08/17 00:12:22;;;;;;;18.83;10.45;;;;;;;11.57;100.00;96293.22;1028295;28;20125;-51
2021/08/17 00:12:53;;;;;;;20.42;10.00;;;;;;;11.60;100.00;96299.09;1024363;28;20019;-52
2021/08/17 00:13:24;;;;;;;20.25;11.15;;;;;;;11.57;100.00;96293.22;1016273;29;20088;-53
2021/08/17 00:13:55;;;;;;;19.25;10.55;;;;;;;11.58;100.00;96293.09;1031725;28;20391;-52
2021/08/17 00:14:25;;;;;;;23.83;11.70;;;;;;;11.59;100.00;96293.94;1032353;28;20419;-52
2021/08/17 00:14:56;;;;;;;20.30;11.18;;;;;;;11.57;100.00;96290.59;1024489;28;20109;-52
2021/08/17 00:15:27;;;;;;;16.15;9.93;;;;;;;11.58;100.00;96293.09;1032191;28;20034;-53
2021/08/17 00:15:58;;;;;;;17.60;10.18;;;;;;;11.57;100.00;96294.03;1032223;28;20038;-52
2021/08/17 00:16:28;;;;;;;21.90;11.43;;;;;;;11.61;100.00;96289.41;1028516;28;20580;-52
2021/08/17 00:16:59;;;;;;;20.70;10.77;;;;;;;11.63;100.00;96293.59;1028290;28;20193;-52
2021/08/17 00:17:29;;;;;;;19.67;11.00;;;;;;;11.66;100.00;96290.78;1024412;28;20050;-52
2021/08/17 00:18:01;;;;;;;20.05;11.00;;;;;;;11.58;100.00;96287.00;1020342;29;20032;-52
2021/08/17 00:18:32;;;;;;;17.95;10.73;;;;;;;11.54;100.00;96285.53;1020786;29;20071;-52
2021/08/17 00:19:02;;;;;;;20.92;10.60;;;;;;;11.59;100.00;96283.44;1024272;29;20127;-52
2021/08/17 00:19:33;;;;;;;19.65;11.05;;;;;;;11.61;100.00;96282.38;1024221;29;20019;-52
2021/08/17 00:20:04;;;;;;;18.60;10.88;;;;;;;11.61;100.00;96289.41;1024117;29;20437;-54
2021/08/17 00:20:35;;;;;;;23.48;11.27;;;;;;;11.65;100.00;96283.00;1024362;29;20135;-52
2021/08/17 00:21:05;;;;;;;20.20;12.00;;;;;;;11.60;100.00;96283.34;1020397;29;20104;-54
2021/08/17 00:21:37;;;;;;;19.98;11.10;;;;;;;11.60;100.00;96283.34;1021027;28;20023;-53
2021/08/17 00:22:07;;;;;;;18.70;11.10;;;;;;;11.57;100.00;96283.53;1028585;28;20023;-53
2021/08/17 00:22:38;;;;;;;18.67;11.63;;;;;;;11.56;100.00;96281.88;1032321;28;20018;-52
2021/08/17 00:23:08;;;;;;;20.13;11.82;;;;;;;11.55;100.00;96284.59;1036506;28;20022;-52
2021/08/17 00:23:39;;;;;;;22.92;12.02;;;;;;;11.54;100.00;96275.03;1031597;28;20500;-52
2021/08/17 00:24:10;;;;;;;20.33;12.27;;;;;;;11.53;100.00;96283.88;1024094;29;20051;-52
2021/08/17 00:24:40;;;;;;;19.58;11.52;;;;;;;11.55;100.00;96288.06;1024392;29;20034;-52
2021/08/17 00:25:11;;;;;;;20.55;11.57;;;;;;;11.57;100.00;96282.72;1024701;28;20057;-52
2021/08/17 00:25:43;;;;;;;21.63;12.40;;;;;;;11.55;100.00;96284.59;1028615;28;20098;-53
2021/08/17 00:26:13;;;;;;;21.38;12.07;;;;;;;11.56;100.00;96284.50;1036158;28;20032;-51
2021/08/17 00:26:44;;;;;;;23.15;12.52;;;;;;;11.55;100.00;96287.22;1028172;28;20029;-53
2021/08/17 00:27:15;;;;;;;23.52;11.82;;;;;;;11.55;100.00;96277.56;1032399;28;20473;-52
2021/08/17 00:27:46;;;;;;;25.52;12.40;;;;;;;11.57;100.00;96290.59;1028299;28;20048;-52
2021/08/17 00:28:16;;;;;;;22.33;12.02;;;;;;;11.57;100.00;96293.22;1024680;28;20019;-52
2021/08/17 00:28:47;;;;;;;23.05;12.65;;;;;;;11.54;100.00;96289.00;1032248;28;20441;-53
2021/08/17 00:29:18;;;;;;;24.00;12.77;;;;;;;11.57;100.00;96287.97;1032306;28;20050;-54
2021/08/17 00:29:48;;;;;;;24.70;13.32;;;;;;;11.57;100.00;96288.78;1032272;28;20169;-52
2021/08/17 00:30:19;;;;;;;23.38;12.85;;;;;;;11.56;100.00;96286.25;1032640;28;20050;-52
2021/08/17 00:30:49;;;;;;;21.27;11.55;;;;;;;11.59;100.00;96293.94;1036218;28;20116;-52
2021/08/17 00:31:20;;;;;;;21.63;12.50;;;;;;;11.57;100.00;96298.47;1032349;28;20050;-52
2021/08/17 00:31:50;;;;;;;22.48;12.68;;;;;;;11.55;100.00;96300.34;1028410;28;20023;-52
2021/08/17 00:32:21;;;;;;;22.10;12.88;;;;;;;11.56;100.00;96297.63;1032377;28;20030;-52
2021/08/17 00:32:52;;;;;;;23.50;12.65;;;;;;;11.56;100.00;96302.88;1028175;28;20023;-51
2021/08/17 00:33:22;;;;;;;22.35;12.65;;;;;;;11.58;100.00;96302.75;1032451;28;20396;-51
2021/08/17 00:33:53;;;;;;;25.70;13.35;;;;;;;11.58;100.00;96306.22;1027568;28;20456;-52
2021/08/17 00:34:23;;;;;;;25.45;13.30;;;;;;;11.64;100.00;96302.34;1032397;28;20026;-52
2021/08/17 00:34:56;;;;;;;24.23;13.07;;;;;;;11.58;100.00;96306.22;1024007;28;20512;-53
2021/08/17 00:35:26;;;;;;;25.30;12.80;;;;;;;11.62;100.00;96301.63;1024743;28;20035;-53
2021/08/17 00:35:57;;;;;;;20.88;11.43;;;;;;;11.62;100.00;96299.00;1024287;29;20027;-52
2021/08/17 00:36:29;;;;;;;22.08;11.93;;;;;;;11.63;100.00;96306.72;1025008;28;20652;-55
2021/08/17 00:37:00;;;;;;;26.33;12.70;;;;;;;11.60;100.00;96319.22;1028010;28;20444;-52
2021/08/17 00:37:31;;;;;;;21.90;12.35;;;;;;;11.59;100.00;96307.06;1025108;28;20023;-53
2021/08/17 00:38:01;;;;;;;21.27;12.10;;;;;;;11.57;100.00;96306.31;1032537;28;20038;-52
2021/08/17 00:38:35;;;;;;;20.85;11.43;;;;;;;11.56;100.00;96304.63;1024759;28;20437;-53
2021/08/17 00:39:06;;;;;;;24.20;12.73;;;;;;;11.60;100.00;96304.34;1028717;28;20073;-51
2021/08/17 00:39:37;;;;;;;25.58;12.63;;;;;;;11.61;100.00;96306.00;1028267;28;20505;-52
2021/08/17 00:40:10;;;;;;;21.17;11.80;;;;;;;11.56;100.00;96304.63;1021896;28;20110;-53
2021/08/17 00:40:40;;;;;;;20.73;11.80;;;;;;;11.57;100.00;96308.94;1024066;29;20109;-53
2021/08/17 00:41:12;;;;;;;25.90;12.75;;;;;;;11.54;100.00;96309.97;1024165;29;20652;-52
2021/08/17 00:41:43;;;;;;;20.80;11.55;;;;;;;11.51;100.00;96298.88;1024337;29;20494;-54
2021/08/17 00:42:13;;;;;;;21.90;11.40;;;;;;;11.51;100.00;96301.50;1024217;28;20023;-51
2021/08/17 00:42:45;;;;;;;24.20;11.93;;;;;;;11.51;100.00;96307.59;1032458;28;20465;-52
2021/08/17 00:43:16;;;;;;;22.75;11.73;;;;;;;11.54;100.00;96304.72;1032107;28;20034;-52
2021/08/17 00:43:46;;;;;;;20.00;11.55;;;;;;;11.55;100.00;96308.22;1023509;29;20121;-53
2021/08/17 00:44:19;;;;;;;23.85;13.20;;;;;;;11.54;100.00;96299.47;1020677;29;20020;-52
2021/08/17 00:44:51;;;;;;;22.20;12.65;;;;;;;11.54;100.00;96315.22;1028067;28;20417;-53
2021/08/17 00:45:24;;;;;;;23.40;13.02;;;;;;;11.53;100.00;96316.19;1032084;28;20101;-53
2021/08/17 00:45:54;;;;;;;24.75;12.60;;;;;;;11.40;100.00;96312.72;1028217;28;20023;-52
2021/08/17 00:46:25;;;;;;;32.42;13.20;;;;;;;11.55;100.00;96323.97;1028520;28;20038;-53
2021/08/17 00:46:55;;;;;;;32.30;14.45;;;;;;;11.62;100.00;96333.09;1029826;28;20105;-53
2021/08/17 00:47:26;;;;;;;28.58;13.93;;;;;;;11.66;100.00;96343.28;1028217;28;20452;-52
2021/08/17 00:47:57;;;;;;;28.48;13.45;;;;;;;11.65;100.00;96344.22;1024450;28;20023;-53
2021/08/17 00:48:28;;;;;;;23.00;12.60;;;;;;;11.63;100.00;96338.22;1024790;28;20106;-56
2021/08/17 00:48:58;;;;;;;27.27;12.85;;;;;;;11.64;100.00;96337.28;1024201;29;20090;-53
2021/08/17 00:49:29;;;;;;;12.85;7.15;;;;;;;11.47;100.00;96338.44;1020284;29;20055;-53
2021/08/17 00:49:59;;;;;;;11.68;6.55;;;;;;;11.42;100.00;96337.91;1024412;28;20019;-52
2021/08/17 00:50:31;;;;;;;10.20;5.07;;;;;;;11.38;100.00;96336.44;1024526;28;20114;-52
2021/08/17 00:51:02;;;;;;;7.75;4.22;;;;;;;11.32;100.00;96333.38;1028391;28;20023;-52
2021/08/17 00:51:32;;;;;;;5.63;3.60;;;;;;;11.23;100.00;96322.56;1020152;28;20024;-52
2021/08/17 00:52:05;;;;;;;6.93;3.97;;;;;;;11.20;100.00;96311.44;1020326;29;20023;-53
2021/08/17 00:52:36;;;;;;;7.82;3.80;;;;;;;11.17;100.00;96319.53;1016392;29;20402;-53
2021/08/17 00:53:07;;;;;;;5.43;2.95;;;;;;;11.08;100.00;96316.56;1020631;29;20020;-52
2021/08/17 00:53:37;;;;;;;5.03;2.85;;;;;;;11.06;100.00;96302.72;1019954;29;20107;-51
2021/08/17 00:54:08;;;;;;;5.97;3.17;;;;;;;11.01;100.00;96304.78;1024191;29;20119;-51
2021/08/17 00:54:41;;;;;;;6.20;3.08;;;;;;;11.00;100.00;96304.88;1024258;29;20453;-52
2021/08/17 00:55:12;;;;;;;4.22;2.50;;;;;;;10.93;100.00;96299.22;1024071;29;20023;-52
2021/08/17 00:55:43;;;;;;;4.22;2.35;;;;;;;10.87;100.00;96297.00;1020619;29;20367;-52
2021/08/17 00:56:14;;;;;;;7.32;2.67;;;;;;;10.81;100.00;96295.63;1024254;29;20030;-52
2021/08/17 00:56:45;;;;;;;4.43;2.20;;;;;;;10.76;100.00;96291.63;1028165;28;20098;-51
2021/08/17 00:57:15;;;;;;;6.65;2.65;;;;;;;10.72;100.00;96293.63;1028232;28;20019;-53
2021/08/17 00:57:46;;;;;;;5.80;2.75;;;;;;;10.69;100.00;96285.94;1020079;29;20561;-52
2021/08/17 00:58:19;;;;;;;5.10;2.83;;;;;;;10.73;100.00;96289.22;1020374;29;20031;-52
2021/08/17 00:58:50;;;;;;;6.82;2.78;;;;;;;10.70;100.00;96291.09;1016694;29;20502;-52
2021/08/17 00:59:20;;;;;;;5.40;2.60;;;;;;;10.65;100.00;96287.09;1017174;29;20020;-52
2021/08/17 00:59:51;;;;;;;6.20;2.70;;;;;;;10.68;100.00;96297.38;1028060;28;20050;-52
2021/08/17 01:00:22;;;;;;;4.15;2.10;;;;;;;10.66;100.00;96291.38;1028606;28;20161;-52
2021/08/17 01:00:53;;;;;;;5.20;2.53;;;;;;;10.63;100.00;96295.03;1032335;28;20554;-51
2021/08/17 01:01:23;;;;;;;4.88;2.38;;;;;;;10.59;100.00;96290.94;1032206;28;20018;-52
2021/08/17 01:01:54;;;;;;;5.30;2.63;;;;;;;10.57;100.00;96292.84;1032116;28;20454;-51
2021/08/17 01:02:25;;;;;;;4.90;2.53;;;;;;;10.56;100.00;96304.25;1032066;28;20012;-52
2021/08/17 01:02:55;;;;;;;6.28;2.65;;;;;;;10.59;100.00;96296.19;1028250;28;20046;-53
2021/08/17 01:03:27;;;;;;;7.68;2.72;;;;;;;10.54;100.00;96298.25;1023965;28;20090;-51
2021/08/17 01:03:57;;;;;;;5.38;2.40;;;;;;;10.57;100.00;96302.47;1019631;29;20144;-53
2021/08/17 01:04:28;;;;;;;5.22;2.55;;;;;;;10.63;100.00;96302.06;1016598;29;20139;-50
2021/08/17 01:05:00;;;;;;;5.22;2.50;;;;;;;10.62;100.00;96309.09;1020311;28;20106;-52
2021/08/17 01:05:31;;;;;;;5.45;2.60;;;;;;;10.58;100.00;96299.75;1024482;28;20509;-52
2021/08/17 01:06:01;;;;;;;5.22;2.80;;;;;;;10.59;100.00;96295.38;1028139;28;20023;-52
2021/08/17 01:06:32;;;;;;;5.63;2.92;;;;;;;10.57;100.00;96305.94;1027915;28;20030;-52
2021/08/17 01:07:03;;;;;;;6.47;2.78;;;;;;;10.58;100.00;96304.97;1024106;29;20020;-51
2021/08/17 01:07:34;;;;;;;7.15;2.78;;;;;;;10.59;100.00;96301.44;1020610;29;20059;-52
2021/08/17 01:08:06;;;;;;;5.20;2.63;;;;;;;10.66;100.00;96299.25;1024132;28;20039;-52
2021/08/17 01:08:37;;;;;;;5.68;2.65;;;;;;;10.59;100.00;96303.22;1020763;29;20450;-51
2021/08/17 01:09:07;;;;;;;4.60;2.35;;;;;;;10.56;100.00;96303.41;1024030;29;20019;-54
2021/08/17 01:09:39;;;;;;;5.15;2.50;;;;;;;10.58;100.00;96296.28;1016369;29;20494;-52
2021/08/17 01:10:10;;;;;;;5.28;2.70;;;;;;;10.59;100.00;96298.81;1019981;29;20032;-53
2021/08/17 01:10:41;;;;;;;5.25;2.70;;;;;;;10.57;100.00;96307.72;1020657;29;20423;-52
2021/08/17 01:11:11;;;;;;;5.22;2.75;;;;;;;10.55;100.00;96304.34;1024323;28;20058;-53
2021/08/17 01:11:45;;;;;;;6.03;2.47;;;;;;;10.60;100.00;96313.56;1023919;29;20070;-51
2021/08/17 01:12:16;;;;;;;5.18;2.60;;;;;;;10.62;100.00;96314.34;1016078;29;20024;-52
2021/08/17 01:12:47;;;;;;;5.18;2.72;;;;;;;10.65;100.00;96322.00;1012993;29;20017;-51
2021/08/17 01:13:17;;;;;;;4.55;2.85;;;;;;;10.66;100.00;96318.44;1016723;29;20107;-51
2021/08/17 01:13:51;;;;;;;5.80;2.42;;;;;;;10.65;100.00;96322.00;1015591;29;20404;-52
2021/08/17 01:14:22;;;;;;;4.95;2.53;;;;;;;10.65;100.00;96322.00;1023922;28;20118;-53
2021/08/17 01:14:52;;;;;;;6.55;2.67;;;;;;;10.65;100.00;96322.00;1028149;28;20049;-52
2021/08/17 01:15:23;;;;;;;4.85;2.60;;;;;;;10.60;100.00;96318.81;1024315;28;20054;-51
2021/08/17 01:15:55;;;;;;;5.18;2.35;;;;;;;10.63;100.00;96321.25;1028038;28;20027;-51
2021/08/17 01:16:26;;;;;;;6.40;3.13;;;;;;;10.67;100.00;96319.28;1028023;28;20027;-53
2021/08/17 01:16:57;;;;;;;5.95;2.55;;;;;;;10.63;100.00;96323.88;1020161;29;20053;-53
2021/08/17 01:17:28;;;;;;;4.22;2.50;;;;;;;10.62;100.00;96316.97;1008386;29;20065;-52
2021/08/17 01:17:59;;;;;;;6.05;3.05;;;;;;;10.64;100.00;96320.31;1008496;29;20066;-51
2021/08/17 01:18:29;;;;;;;5.38;3.03;;;;;;;10.69;100.00;96320.84;1016128;29;20035;-50
2021/08/17 01:19:00;;;;;;;6.32;2.90;;;;;;;10.66;100.00;96318.44;1020272;29;20034;-52
2021/08/17 01:19:30;;;;;;;6.55;3.38;;;;;;;10.68;100.00;96316.56;1020168;29;20047;-52
2021/08/17 01:20:01;;;;;;;5.60;3.10;;;;;;;10.66;100.00;96320.19;1024181;29;20085;-51
2021/08/17 01:20:32;;;;;;;5.90;3.10;;;;;;;10.67;100.00;96314.03;1020016;29;20542;-53
2021/08/17 01:21:07;;;;;;;6.32;3.17;;;;;;;10.71;100.00;96326.00;1016251;29;20027;-52
2021/08/17 01:21:38;;;;;;;7.00;3.22;;;;;;;10.74;100.00;96324.97;1013366;29;20503;-52
2021/08/17 01:22:09;;;;;;;6.63;3.30;;;;;;;10.77;100.00;96330.00;1016960;29;20027;-53
2021/08/17 01:22:44;;;;;;;7.00;3.70;;;;;;;10.76;100.00;96330.94;1015282;29;20028;-53
2021/08/17 01:23:18;;;;;;;5.47;3.20;;;;;;;10.74;100.00;96328.44;1012060;29;20403;-53
2021/08/17 01:23:49;;;;;;;6.15;3.20;;;;;;;10.72;100.00;96316.34;1015694;29;20047;-51
2021/08/17 01:24:20;;;;;;;5.93;2.95;;;;;;;10.76;100.00;96323.09;1016417;29;20045;-51
2021/08/17 01:24:50;;;;;;;8.40;4.10;;;;;;;10.79;100.00;96331.59;1016049;29;20027;-53
2021/08/17 01:25:21;;;;;;;7.30;3.65;;;;;;;10.82;100.00;96327.94;1019986;29;20107;-50
2021/08/17 01:25:51;;;;;;;6.38;3.05;;;;;;;10.80;100.00;96325.41;1020219;29;20472;-51
2021/08/17 01:26:22;;;;;;;6.63;2.90;;;;;;;10.81;100.00;96331.47;1024130;29;20070;-53
2021/08/17 01:26:53;;;;;;;5.43;3.25;;;;;;;10.77;100.00;96340.47;1020016;29;20024;-51
2021/08/17 01:27:23;;;;;;;5.38;3.03;;;;;;;10.76;100.00;96330.94;1020348;29;20383;-51
2021/08/17 01:27:54;;;;;;;4.60;2.65;;;;;;;10.66;100.00;96328.06;1024186;28;20091;-52
2021/08/17 01:28:24;;;;;;;4.70;2.50;;;;;;;10.58;100.00;96325.94;1024236;28;20032;-52
2021/08/17 01:28:55;;;;;;;3.90;2.20;;;;;;;10.60;100.00;96320.59;1023966;29;20019;-52
2021/08/17 01:29:26;;;;;;;5.50;3.03;;;;;;;10.60;100.00;96313.56;1019925;29;20062;-52
2021/08/17 01:29:56;;;;;;;4.75;2.42;;;;;;;10.57;100.00;96313.78;1028053;28;20062;-53
2021/08/17 01:30:27;;;;;;;4.97;2.33;;;;;;;10.54;100.00;96308.75;1023959;28;20585;-52
2021/08/17 01:31:01;;;;;;;5.35;2.95;;;;;;;10.54;100.00;96297.44;1020169;29;20052;-51
2021/08/17 01:31:32;;;;;;;5.90;2.75;;;;;;;10.58;100.00;96306.78;1019538;29;20012;-52
2021/08/17 01:32:02;;;;;;;6.30;2.88;;;;;;;10.56;100.00;96295.53;1017211;29;20052;-52
2021/08/17 01:32:33;;;;;;;4.75;2.90;;;;;;;10.52;100.00;96300.16;1020659;29;20055;-52
2021/08/17 01:33:04;;;;;;;5.18;2.38;;;;;;;10.49;100.00;96295.94;1015949;29;20111;-52
2021/08/17 01:33:35;;;;;;;4.38;2.35;;;;;;;10.48;100.00;96294.25;1019531;29;20518;-51
2021/08/17 01:34:05;;;;;;;4.57;2.40;;;;;;;10.53;100.00;96291.34;1023943;29;20453;-52
2021/08/17 01:34:36;;;;;;;4.43;2.50;;;;;;;10.52;100.00;96287.03;1019935;29;20039;-51
2021/08/17 01:35:07;;;;;;;5.05;2.58;;;;;;;10.49;100.00;96288.09;1027818;28;20022;-55
2021/08/17 01:35:37;;;;;;;4.25;2.38;;;;;;;10.50;100.00;96286.31;1023875;28;20026;-48
2021/08/17 01:36:08;;;;;;;4.35;2.20;;;;;;;10.47;100.00;96282.13;1023981;28;20106;-51
2021/08/17 01:36:39;;;;;;;4.13;2.22;;;;;;;10.48;100.00;96275.09;1016161;29;20402;-53
2021/08/17 01:37:09;;;;;;;3.90;2.20;;;;;;;10.45;100.00;96273.50;1023968;29;20052;-52
2021/08/17 01:37:40;;;;;;;3.97;2.20;;;;;;;10.44;100.00;96284.09;1023940;28;20111;-48
2021/08/17 01:38:10;;;;;;;4.05;2.05;;;;;;;10.41;100.00;96273.78;1016216;29;20027;-51
2021/08/17 01:38:46;;;;;;;4.32;2.30;;;;;;;10.41;100.00;96282.50;1016084;29;20064;-52
2021/08/17 01:39:16;;;;;;;4.93;2.00;;;;;;;10.40;100.00;96274.72;1015922;29;20024;-52
2021/08/17 01:40:05;;;;;;;4.30;2.28;;;;;;;10.41;100.00;96277.25;1020728;29;20446;-52
2021/08/17 01:40:36;;;;;;;4.40;1.90;;;;;;;10.40;100.00;96269.47;1027249;28;20019;-52
2021/08/17 01:41:06;;;;;;;3.45;2.00;;;;;;;10.40;100.00;96277.34;1027881;28;20011;-51
2021/08/17 01:41:38;;;;;;;3.95;1.95;;;;;;;10.39;100.00;96286.16;1023852;28;20026;-50
2021/08/17 01:42:08;;;;;;;4.53;2.10;;;;;;;10.37;100.00;96288.03;1020097;29;20111;-52
2021/08/17 01:42:44;;;;;;;4.13;2.10;;;;;;;10.32;100.00;96288.31;1008101;29;20112;-51
2021/08/17 01:43:15;;;;;;;5.72;3.10;;;;;;;10.27;100.00;96285.97;1012223;29;20052;-51
2021/08/17 01:43:47;;;;;;;3.42;2.08;;;;;;;10.26;100.00;96286.06;1015384;29;20395;-51
2021/08/17 01:44:17;;;;;;;3.70;2.10;;;;;;;10.24;100.00;96285.31;1017058;29;20071;-52
2021/08/17 01:44:48;;;;;;;5.70;2.35;;;;;;;10.21;100.00;96290.75;1020425;29;20111;-51
2021/08/17 01:45:20;;;;;;;3.70;1.80;;;;;;;10.20;100.00;96295.16;1020051;29;20201;-52
2021/08/17 01:45:54;;;;;;;4.57;2.28;;;;;;;10.17;100.00;96292.72;1016276;29;20398;-51
2021/08/17 01:46:25;;;;;;;6.20;2.30;;;;;;;10.18;100.00;96304.88;1020371;29;20088;-51
2021/08/17 01:46:55;;;;;;;5.55;2.00;;;;;;;10.16;100.00;96301.53;1016449;29;20529;-53
2021/08/17 01:47:34;;;;;;;4.32;2.28;;;;;;;10.20;100.00;96302.16;1024581;28;20043;-52
2021/08/17 01:48:05;;;;;;;4.25;2.00;;;;;;;10.19;100.00;96303.09;1023665;29;20030;-51
2021/08/17 01:48:36;;;;;;;3.70;2.00;;;;;;;10.14;100.00;96308.63;1020071;29;20081;-52
2021/08/17 01:49:07;;;;;;;4.75;2.33;;;;;;;10.11;100.00;96303.59;1021417;28;20103;-52
2021/08/17 01:49:37;;;;;;;5.07;2.42;;;;;;;10.10;100.00;96307.16;1024618;28;20031;-52
2021/08/17 01:50:08;;;;;;;4.47;2.22;;;;;;;10.08;100.00;96316.88;1027826;28;20018;-52
2021/08/17 01:50:39;;;;;;;4.47;2.35;;;;;;;10.07;100.00;96318.63;1027972;28;20032;-52
2021/08/17 01:51:10;;;;;;;4.80;2.30;;;;;;;10.04;100.00;96316.22;1028172;28;20400;-52
2021/08/17 01:51:41;;;;;;;3.83;2.10;;;;;;;10.08;100.00;96325.56;1028128;28;20485;-49
2021/08/17 01:52:11;;;;;;;5.15;2.50;;;;;;;10.12;100.00;96315.75;1027819;28;20109;-52
2021/08/17 01:52:42;;;;;;;4.47;2.30;;;;;;;10.09;100.00;96316.75;1023832;29;20023;-52
2021/08/17 01:53:13;;;;;;;5.20;2.80;;;;;;;10.04;100.00;96324.09;1020030;29;20080;-51
2021/08/17 01:53:43;;;;;;;5.10;2.22;;;;;;;10.02;100.00;96328.59;1023294;28;20081;-54
2021/08/17 01:54:16;;;;;;;4.50;2.38;;;;;;;10.01;100.00;96326.88;1019884;29;20078;-52
2021/08/17 01:54:47;;;;;;;5.95;2.50;;;;;;;10.01;100.00;96329.50;1019654;29;20024;-51
2021/08/17 01:55:17;;;;;;;7.38;2.10;;;;;;;10.04;100.00;96331.06;1027788;28;20027;-51
2021/08/17 01:55:49;;;;;;;4.85;2.78;;;;;;;10.05;100.00;96331.00;1028418;28;20053;-52
2021/08/17 01:56:20;;;;;;;5.20;2.38;;;;;;;10.03;100.00;96332.88;1031942;28;20022;-52
2021/08/17 01:56:51;;;;;;;5.45;2.75;;;;;;;10.04;100.00;96337.19;1024115;29;20051;-52
2021/08/17 01:57:22;;;;;;;6.13;3.10;;;;;;;10.02;100.00;96332.94;1024264;28;20031;-53
2021/08/17 01:57:52;;;;;;;4.65;2.47;;;;;;;10.02;100.00;96343.41;1028053;28;20520;-51
2021/08/17 01:58:23;;;;;;;5.70;2.85;;;;;;;10.02;100.00;96343.41;1028359;28;20082;-52
2021/08/17 01:58:54;;;;;;;6.57;2.55;;;;;;;10.07;100.00;96344.81;1031995;28;20476;-52
2021/08/17 01:59:24;;;;;;;6.50;3.28;;;;;;;10.05;100.00;96356.34;1031990;28;20026;-51
2021/08/17 01:59:55;;;;;;;7.07;3.10;;;;;;;10.04;100.00;96362.50;1027969;28;20054;-51
2021/08/17 02:00:26;;;;;;;5.45;3.03;;;;;;;10.07;100.00;96357.06;1020302;29;20138;-51
2021/08/17 02:00:56;;;;;;;5.85;3.08;;;;;;;10.08;100.00;96362.22;1023993;29;20037;-52
2021/08/17 02:01:27;;;;;;;5.68;2.78;;;;;;;10.09;100.00;96357.81;1027882;28;20547;-51
2021/08/17 02:01:58;;;;;;;7.00;3.03;;;;;;;10.09;100.00;96366.50;1028010;28;20034;-51
2021/08/17 02:02:28;;;;;;;5.05;2.80;;;;;;;10.11;100.00;96369.03;1015714;29;20051;-52
2021/08/17 02:02:59;;;;;;;6.57;3.20;;;;;;;10.13;100.00;96367.16;1016101;29;20051;-51
2021/08/17 02:03:29;;;;;;;5.38;3.28;;;;;;;10.17;100.00;96362.56;1019353;29;20105;-52
2021/08/17 02:04:00;;;;;;;5.15;3.20;;;;;;;10.20;100.00;96376.31;1019584;29;20027;-53
2021/08/17 02:04:31;;;;;;;7.18;3.40;;;;;;;10.21;100.00;96372.78;1019990;29;20039;-51
2021/08/17 02:05:01;;;;;;;5.93;3.25;;;;;;;10.21;100.00;96374.53;1020396;28;20512;-52
2021/08/17 02:05:32;;;;;;;5.68;2.85;;;;;;;10.23;100.00;96373.53;1020211;28;20028;-55
2021/08/17 02:06:03;;;;;;;5.72;2.90;;;;;;;10.26;100.00;96380.34;1024023;29;20162;-52
2021/08/17 02:06:34;;;;;;;5.15;2.95;;;;;;;10.27;100.00;96382.88;1027695;28;20030;-52
2021/08/17 02:07:04;;;;;;;7.40;3.53;;;;;;;10.27;100.00;96382.88;1027816;28;20050;-53
2021/08/17 02:07:35;;;;;;;7.97;2.97;;;;;;;10.30;100.00;96389.69;1023906;28;20057;-52
2021/08/17 02:08:06;;;;;;;7.07;2.90;;;;;;;10.29;100.00;96388.84;1020012;29;20482;-52
2021/08/17 02:08:36;;;;;;;5.63;3.13;;;;;;;10.30;100.00;96398.44;1019986;29;20107;-52
2021/08/17 02:09:07;;;;;;;6.85;3.28;;;;;;;10.34;100.00;96393.00;1020244;28;20039;-51
2021/08/17 02:09:37;;;;;;;5.45;2.95;;;;;;;10.37;100.00;96395.44;1028012;28;20023;-49
2021/08/17 02:10:09;;;;;;;4.88;2.45;;;;;;;10.34;100.00;96393.00;1023823;29;20114;-51
2021/08/17 02:10:40;;;;;;;4.97;2.90;;;;;;;10.34;100.00;96395.59;1027646;28;20049;-51
2021/08/17 02:11:11;;;;;;;11.98;2.60;;;;;;;10.37;100.00;96392.81;1023899;29;20026;-52
2021/08/17 02:11:41;;;;;;;4.40;2.35;;;;;;;10.41;100.00;96399.53;1024341;28;20019;-50
2021/08/17 02:12:12;;;;;;;3.08;1.92;;;;;;;10.33;100.00;96392.16;1028076;28;20106;-51
2021/08/17 02:12:43;;;;;;;3.95;2.22;;;;;;;10.37;100.00;96390.19;1028084;28;20617;-52
2021/08/17 02:13:16;;;;;;;4.45;2.40;;;;;;;10.38;100.00;96389.25;1027936;28;20421;-52
2021/08/17 02:13:47;;;;;;;6.00;2.55;;;;;;;10.41;100.00;96383.81;1023306;29;20012;-51
2021/08/17 02:14:17;;;;;;;5.90;2.40;;;;;;;10.41;100.00;96389.06;1024489;28;20011;-52
2021/08/17 02:14:48;;;;;;;5.80;2.67;;;;;;;10.35;100.00;96386.81;1024270;28;20038;-53
2021/08/17 02:15:18;;;;;;;4.80;2.45;;;;;;;10.30;100.00;96380.09;1027782;28;20496;-53
2021/08/17 02:15:49;;;;;;;5.65;2.30;;;;;;;10.28;100.00;96381.09;1035836;28;20132;-51
2021/08/17 02:16:20;;;;;;;5.05;2.25;;;;;;;10.25;100.00;96383.91;1027846;28;20433;-51
2021/08/17 02:16:51;;;;;;;6.18;2.40;;;;;;;10.23;100.00;96378.75;1031675;28;20054;-51
2021/08/17 02:17:21;;;;;;;4.25;2.50;;;;;;;10.24;100.00;96385.66;1032035;28;20093;-52
2021/08/17 02:17:52;;;;;;;5.50;2.67;;;;;;;10.32;100.00;96379.97;1028028;28;20494;-51
2021/08/17 02:18:23;;;;;;;5.15;2.20;;;;;;;10.28;100.00;96381.91;1032091;28;20098;-54
2021/08/17 02:18:53;;;;;;;6.03;2.50;;;;;;;10.27;100.00;96377.63;1027790;28;20027;-51
2021/08/17 02:19:24;;;;;;;5.05;2.58;;;;;;;10.31;100.00;96375.69;1024128;28;20015;-51
2021/08/17 02:19:54;;;;;;;3.58;2.33;;;;;;;10.29;100.00;96375.75;1031897;28;20022;-51
2021/08/17 02:20:26;;;;;;;4.88;2.30;;;;;;;10.33;100.00;96375.59;1028001;28;20021;-52
2021/08/17 02:20:58;;;;;;;4.97;2.50;;;;;;;10.38;100.00;96376.13;1032191;28;20479;-51
2021/08/17 02:21:29;;;;;;;4.22;2.20;;;;;;;10.37;100.00;96372.69;1035418;28;20030;-52
2021/08/17 02:22:00;;;;;;;4.28;2.30;;;;;;;10.39;100.00;96368.19;1032464;28;20477;-51
2021/08/17 02:22:30;;;;;;;3.83;2.42;;;;;;;10.36;100.00;96367.53;1035813;28;20098;-52
2021/08/17 02:23:01;;;;;;;4.70;2.33;;;;;;;10.33;100.00;96365.97;1031983;28;20023;-54